Capitol Logistics 580




RJAA
Tokyo-Narita International Airport
Tokyo, JP
RJGG
Chubu Centrair International Airport
Nagoya, JP

Activity Log

Date Flight Route Aircraft Duration
No Flights Yet

Route Details

Aircraft Information
Group: Trans-Pacific Ops
Types: B744,B763,MD11
Route Data
Demand: V
Distance: 184nm
Duration: 1h 10m
Recm'd Route: TETRA8 SZE Y295 GAKKI SHTLE MOANA MALUS RALPH
Origin Wx: RJAA 270444Z 14011KT 9999 FEW008 SCT010 BKN020 22/20 Q0998 RMK 1ST008 3CU010 6CU020 A2948
Dest. Wx: RJGG 270500Z 22004KT 9999 FEW025 BKN/// 25/19 Q0998 NOSIG
Notes:

Financial History
Total Freight: 0lbs
Average Load: 0lbs/flt
Fuel Used: 0lbs
Avg. Fuel Used: 0lbs/flt
Fuel Expense: $0
Avg. Fuel Expense: $0
Avg. Fuel Cost: $0/lbs
Total Gross Income: $0
Pilot Pay: $0
Total Expenses: $0
Total Revenue: $0
Average Revenue: $0